Time;durP1;ratioP1;P1;durP2;ratioP2;P2;SDS_P1;SDS_P2;PMS_P1;PMS_P2;Temp;Humidity;BMP_temperature;BMP_pressure;BME280_temperature;BME280_humidity;BME280_pressure;Samples;Min_cycle;Max_cycle;Signal;HPM_P1;HPM_P2
2024/04/14 00:00:43;;;;;;;7.22;3.95;;;;;;;20.00;75.83;101231.72;5418633;26;20358;-77
2024/04/14 00:03:57;;;;;;;7.22;3.60;;;;;;;19.91;75.04;101226.44;5417887;26;20020;-77
2024/04/14 00:07:02;;;;;;;10.98;4.40;;;;;;;19.68;75.53;101223.59;5418579;26;20019;-77
2024/04/14 00:10:07;;;;;;;6.07;4.07;;;;;;;19.66;75.76;101212.03;5418333;26;20374;-77
2024/04/14 00:13:12;;;;;;;7.53;3.97;;;;;;;19.71;75.43;101214.22;5418326;26;20023;-77
2024/04/14 00:16:17;;;;;;;6.82;3.70;;;;;;;19.59;75.83;101216.47;5418389;26;20023;-77
2024/04/14 00:19:21;;;;;;;8.00;4.30;;;;;;;19.39;76.25;101215.09;5418341;26;20023;-78
2024/04/14 00:22:26;;;;;;;8.35;3.78;;;;;;;19.28;76.76;101212.72;5418409;26;20454;-77
2024/04/14 00:25:34;;;;;;;9.57;4.10;;;;;;;19.36;76.07;101212.69;5418209;26;20023;-77
2024/04/14 00:28:40;;;;;;;9.13;3.65;;;;;;;19.49;75.68;101213.06;5417268;26;20023;-77
2024/04/14 00:31:45;;;;;;;13.15;5.10;;;;;;;19.26;76.27;101215.56;5417154;26;20019;-77
2024/04/14 00:34:51;;;;;;;8.30;4.13;;;;;;;19.05;77.03;101214.38;5417046;26;20024;-77
2024/04/14 00:37:56;;;;;;;9.05;3.47;;;;;;;19.13;76.39;101203.50;5418067;26;20024;-77
2024/04/14 00:41:01;;;;;;;12.55;4.80;;;;;;;18.97;76.96;101208.91;5418190;26;20023;-77
2024/04/14 00:44:06;;;;;;;6.50;3.70;;;;;;;19.05;76.12;101207.06;5418011;26;20361;-78
2024/04/14 00:47:11;;;;;;;7.30;4.43;;;;;;;19.01;75.94;101207.59;5417964;26;20031;-77
2024/04/14 00:50:16;;;;;;;5.97;3.47;;;;;;;19.08;75.54;101203.16;5416795;26;20035;-77
2024/04/14 00:53:22;;;;;;;7.18;3.70;;;;;;;18.98;75.43;101199.75;5417767;26;20027;-77
2024/04/14 00:56:27;;;;;;;9.60;3.70;;;;;;;18.91;74.85;101198.72;5417815;26;20330;-77
2024/04/14 00:59:34;;;;;;;5.10;3.60;;;;;;;18.92;74.74;101198.53;5417869;26;20027;-77
2024/04/14 01:02:39;;;;;;;5.28;3.30;;;;;;;19.02;74.12;101193.78;5417844;26;20023;-77
2024/04/14 01:05:44;;;;;;;6.32;3.30;;;;;;;18.86;74.65;101199.22;5417748;26;20019;-77
2024/04/14 01:08:49;;;;;;;7.05;3.97;;;;;;;18.81;74.21;101193.44;5417606;26;20024;-77
2024/04/14 01:11:54;;;;;;;6.85;3.60;;;;;;;18.63;74.93;101193.56;5417685;26;20023;-78
2024/04/14 01:14:59;;;;;;;8.85;3.47;;;;;;;18.65;75.01;101191.53;5416379;26;20377;-77
2024/04/14 01:18:07;;;;;;;5.00;3.38;;;;;;;18.59;74.85;101192.19;5396077;26;20027;-77
2024/04/14 01:21:12;;;;;;;6.35;3.15;;;;;;;18.57;74.76;101194.22;5395999;26;20362;-77
2024/04/14 01:24:17;;;;;;;10.30;3.13;;;;;;;18.58;74.35;101193.22;5417784;26;20023;-77
2024/04/14 01:27:22;;;;;;;9.13;3.88;;;;;;;18.47;74.99;101188.06;5417401;26;20028;-77
2024/04/14 01:30:27;;;;;;;9.98;3.33;;;;;;;18.40;74.71;101184.28;5417444;26;20454;-77
2024/04/14 01:33:32;;;;;;;8.20;3.72;;;;;;;18.36;74.67;101177.47;5417302;26;20011;-77
2024/04/14 01:36:37;;;;;;;7.90;3.17;;;;;;;18.34;74.80;101178.66;5417380;26;20024;-77
2024/04/14 01:39:41;;;;;;;5.82;3.10;;;;;;;18.43;74.39;101183.94;5416221;26;20024;-77
2024/04/14 01:42:46;;;;;;;8.13;3.25;;;;;;;18.51;73.87;101186.75;5417162;26;20463;-77
2024/04/14 01:45:51;;;;;;;5.72;3.15;;;;;;;18.46;73.66;101185.50;5417076;26;20020;-77
2024/04/14 01:48:55;;;;;;;7.45;3.28;;;;;;;18.51;73.26;101175.84;5416968;26;20023;-76
2024/04/14 01:52:02;;;;;;;5.53;2.83;;;;;;;18.38;73.36;101178.16;5416950;26;20370;-77
2024/04/14 01:55:07;;;;;;;6.38;2.60;;;;;;;18.43;72.82;101170.34;5417088;26;20494;-77
2024/04/14 01:58:12;;;;;;;5.25;3.00;;;;;;;18.52;72.60;101171.25;5417003;26;20459;-77
2024/04/14 02:01:17;;;;;;;6.72;3.63;;;;;;;18.45;72.79;101165.59;5416826;26;20023;-77
2024/04/14 02:04:21;;;;;;;5.05;2.90;;;;;;;18.35;73.22;101170.31;5416864;26;20020;-77
2024/04/14 02:07:26;;;;;;;5.32;2.78;;;;;;;18.62;72.00;101172.81;5415601;26;20023;-78
2024/04/14 02:10:30;;;;;;;8.15;2.90;;;;;;;18.69;71.79;101176.56;5416759;26;20020;-77
2024/04/14 02:13:35;;;;;;;6.72;2.83;;;;;;;18.73;71.62;101169.78;5415421;26;20023;-77
2024/04/14 02:16:40;;;;;;;4.40;3.13;;;;;;;18.98;71.18;101175.25;5416614;26;20023;-77
2024/04/14 02:19:44;;;;;;;5.40;3.33;;;;;;;18.92;71.09;101175.91;5416544;26;20023;-77
2024/04/14 02:22:49;;;;;;;5.38;2.88;;;;;;;18.93;71.06;101177.63;5416671;26;20024;-77
2024/04/14 02:25:58;;;;;;;4.85;2.67;;;;;;;18.87;71.83;101167.41;5417789;26;20024;-77
2024/04/14 02:29:02;;;;;;;5.30;3.35;;;;;;;18.84;71.72;101180.34;5418975;26;20458;-77
2024/04/14 02:32:07;;;;;;;7.35;3.17;;;;;;;18.84;71.63;101180.34;5419733;26;20102;-77
2024/04/14 02:35:11;;;;;;;4.60;2.60;;;;;;;18.77;71.97;101176.59;5420076;26;20020;-77
2024/04/14 02:38:16;;;;;;;6.43;3.20;;;;;;;18.65;72.53;101172.50;5419924;26;20028;-77
2024/04/14 02:41:21;;;;;;;5.35;2.90;;;;;;;18.62;72.98;101175.53;5419813;26;20023;-77
2024/04/14 02:44:25;;;;;;;6.82;3.13;;;;;;;18.60;72.15;101174.84;5419164;26;20463;-77
2024/04/14 02:47:30;;;;;;;6.88;3.10;;;;;;;18.59;72.05;101177.75;5418382;26;20019;-77
2024/04/14 02:50:34;;;;;;;5.00;2.83;;;;;;;18.56;71.88;101170.78;5419555;26;20020;-77
2024/04/14 02:53:39;;;;;;;8.77;3.42;;;;;;;18.37;71.80;101171.00;5419464;26;20020;-76
2024/04/14 02:56:52;;;;;;;7.00;2.65;;;;;;;18.46;70.55;101178.22;5418244;26;20031;-77
2024/04/14 02:59:57;;;;;;;5.82;2.50;;;;;;;18.44;71.07;101180.19;5419241;26;20459;-77
2024/04/14 03:03:03;;;;;;;5.97;2.72;;;;;;;18.45;70.83;101179.19;5419159;26;20021;-77
2024/04/14 03:06:07;;;;;;;5.95;2.30;;;;;;;18.45;70.82;101176.47;5419218;26;20024;-77
2024/04/14 03:09:12;;;;;;;5.28;2.75;;;;;;;18.39;70.64;101181.72;5418900;26;20023;-77
2024/04/14 03:12:17;;;;;;;6.63;2.63;;;;;;;18.37;70.83;101175.63;5418915;26;20023;-77
2024/04/14 03:15:22;;;;;;;5.68;2.25;;;;;;;18.35;70.99;101180.34;5418938;26;20023;-77
2024/04/14 03:18:26;;;;;;;5.63;3.00;;;;;;;18.35;70.68;101178.47;5418083;26;20020;-77
2024/04/14 03:21:31;;;;;;;9.63;3.10;;;;;;;18.21;71.64;101181.84;5418993;26;20024;-77
2024/04/14 03:24:36;;;;;;;5.22;2.55;;;;;;;18.10;71.95;101182.09;5418769;26;20027;-76
2024/04/14 03:27:42;;;;;;;5.07;2.45;;;;;;;18.19;71.58;101179.25;5419056;26;20423;-76
2024/04/14 03:30:48;;;;;;;6.70;2.80;;;;;;;18.03;71.69;101173.78;5418835;26;20020;-76
2024/04/14 03:33:54;;;;;;;7.07;2.83;;;;;;;17.88;71.88;101177.25;5418773;26;20019;-76
2024/04/14 03:36:58;;;;;;;5.85;2.70;;;;;;;17.87;71.77;101172.84;5416765;26;20023;-77
2024/04/14 03:40:04;;;;;;;9.38;3.03;;;;;;;17.84;72.01;101175.88;5418929;26;20019;-77
2024/04/14 03:43:09;;;;;;;5.55;2.90;;;;;;;17.76;71.81;101181.25;5418931;26;20028;-78
2024/04/14 03:46:14;;;;;;;8.20;2.97;;;;;;;17.53;72.46;101181.78;5419040;26;20039;-78
2024/04/14 03:49:19;;;;;;;9.20;2.72;;;;;;;17.46;72.56;101180.69;5418874;26;20023;-78
2024/04/14 03:52:24;;;;;;;4.30;2.80;;;;;;;17.47;72.82;101182.41;5418684;26;20031;-77
2024/04/14 03:55:28;;;;;;;8.65;3.30;;;;;;;17.40;73.00;101178.63;5418638;26;20467;-77
2024/04/14 03:58:34;;;;;;;5.53;2.85;;;;;;;17.33;73.08;101177.53;5418577;26;20039;-77
2024/04/14 04:01:38;;;;;;;9.48;3.40;;;;;;;17.21;73.40;101172.50;5418554;26;20023;-78
2024/04/14 04:04:43;;;;;;;9.15;3.45;;;;;;;17.40;72.68;101170.50;5415261;26;20027;-77
2024/04/14 04:07:48;;;;;;;6.07;3.10;;;;;;;17.24;73.04;101174.91;5415391;26;20027;-78
2024/04/14 04:11:03;;;;;;;7.20;3.05;;;;;;;17.14;73.19;101175.00;5415433;26;20023;-78
2024/04/14 04:14:08;;;;;;;6.38;2.47;;;;;;;17.16;72.93;101174.88;5394624;26;20020;-77
2024/04/14 04:17:13;;;;;;;7.43;2.70;;;;;;;17.33;72.24;101172.09;5415261;26;20031;-75
2024/04/14 04:20:17;;;;;;;5.57;2.67;;;;;;;17.14;72.69;101179.56;5415055;26;20019;-76
2024/04/14 04:23:22;;;;;;;6.68;2.90;;;;;;;17.07;72.70;101179.34;5414982;26;20486;-78
2024/04/14 04:26:27;;;;;;;6.68;2.35;;;;;;;17.14;72.86;101174.16;5415082;26;20475;-78
2024/04/14 04:29:31;;;;;;;6.13;2.67;;;;;;;17.00;73.00;101178.28;5394626;26;20027;-78
2024/04/14 04:32:36;;;;;;;8.00;2.90;;;;;;;17.01;73.01;101179.97;5414764;26;20374;-76
2024/04/14 04:35:50;;;;;;;11.73;3.45;;;;;;;16.99;73.25;101182.00;5404685;26;20454;-77
2024/04/14 04:39:03;;;;;;;7.32;2.60;;;;;;;17.05;72.64;101181.38;5417823;26;20458;-76
2024/04/14 04:42:08;;;;;;;4.87;2.80;;;;;;;16.96;73.02;101174.16;5417876;26;20023;-76
2024/04/14 04:45:13;;;;;;;7.13;2.72;;;;;;;16.97;72.95;101180.44;5417844;26;20027;-76
2024/04/14 04:48:17;;;;;;;6.45;2.67;;;;;;;17.11;72.31;101186.16;5416483;26;20028;-76
2024/04/14 04:51:27;;;;;;;5.47;2.28;;;;;;;17.11;72.17;101183.44;5417547;26;20027;-76
2024/04/14 04:54:31;;;;;;;4.60;2.35;;;;;;;17.21;71.83;101180.66;5417434;26;20027;-76
2024/04/14 04:57:36;;;;;;;6.50;2.90;;;;;;;17.26;71.17;101183.75;5417834;26;20358;-76
2024/04/14 05:00:56;;;;;;;8.10;2.75;;;;;;;17.05;71.67;101184.09;5417434;26;20043;-76
2024/04/14 05:04:01;;;;;;;7.18;2.67;;;;;;;17.02;72.07;101178.13;5417510;26;20019;-75
2024/04/14 05:07:06;;;;;;;6.03;2.47;;;;;;;17.24;71.17;101185.78;5417644;26;20016;-77
2024/04/14 05:10:11;;;;;;;6.38;2.60;;;;;;;17.29;70.90;101181.59;5417221;26;20019;-76
2024/04/14 05:13:15;;;;;;;7.95;2.63;;;;;;;17.34;69.96;101186.53;5417481;26;20020;-77
2024/04/14 05:16:22;;;;;;;6.70;2.35;;;;;;;17.58;69.10;101181.31;5417483;26;20020;-75
2024/04/14 05:19:27;;;;;;;8.60;3.13;;;;;;;18.20;67.05;101182.84;5416302;26;20474;-76
2024/04/14 05:22:32;;;;;;;5.57;2.25;;;;;;;18.22;66.55;101179.97;5417129;26;20024;-77
2024/04/14 05:25:41;;;;;;;5.60;2.30;;;;;;;18.49;65.71;101179.75;5417226;26;20027;-76
2024/04/14 05:28:46;;;;;;;6.13;2.30;;;;;;;18.80;64.38;101176.25;5395974;26;20019;-77
2024/04/14 05:31:51;;;;;;;8.05;2.08;;;;;;;19.60;61.49;101177.31;5417159;26;20023;-76
2024/04/14 05:34:56;;;;;;;5.28;2.65;;;;;;;20.86;57.07;101170.84;5416964;26;20019;-77
2024/04/14 05:38:01;;;;;;;6.43;2.10;;;;;;;21.29;55.33;101172.91;5417194;26;20467;-77
2024/04/14 05:41:05;;;;;;;4.55;2.22;;;;;;;21.11;55.26;101166.94;5415766;26;20027;-77
2024/04/14 05:44:11;;;;;;;6.20;2.22;;;;;;;21.49;54.24;101173.22;5416923;26;20023;-76
2024/04/14 05:47:16;;;;;;;6.53;2.42;;;;;;;21.65;53.86;101175.81;5417002;26;20023;-77
2024/04/14 05:50:22;;;;;;;4.57;2.67;;;;;;;21.10;55.62;101171.53;5416785;26;20377;-77
2024/04/14 05:53:26;;;;;;;5.82;2.30;;;;;;;20.84;56.35;101172.91;5416971;26;20023;-77
2024/04/14 05:56:31;;;;;;;7.03;2.28;;;;;;;20.72;57.41;101175.16;5416836;26;20019;-76
2024/04/14 05:59:35;;;;;;;6.38;2.50;;;;;;;20.82;56.99;101172.22;5416580;26;20035;-76
2024/04/14 06:02:40;;;;;;;5.25;2.22;;;;;;;21.07;56.38;101176.50;5416705;26;20318;-76
2024/04/14 06:05:49;;;;;;;5.72;2.50;;;;;;;20.49;58.15;101175.13;5416514;26;20019;-77
2024/04/14 06:08:54;;;;;;;5.95;2.33;;;;;;;20.41;58.96;101171.63;5416192;26;20024;-76
2024/04/14 06:12:00;;;;;;;7.68;3.30;;;;;;;20.45;59.44;101176.53;5416539;26;20438;-76
2024/04/14 06:15:06;;;;;;;10.50;3.42;;;;;;;21.05;57.75;101167.63;5416537;26;20027;-77
2024/04/14 06:18:11;;;;;;;11.85;5.03;;;;;;;21.01;57.67;101175.31;5416455;26;20031;-77
2024/04/14 06:21:16;;;;;;;10.35;4.78;;;;;;;21.50;56.70;101174.94;5416467;26;20023;-77
2024/04/14 06:24:21;;;;;;;8.70;4.30;;;;;;;21.44;56.66;101178.41;5416686;26;20031;-77
2024/04/14 06:27:25;;;;;;;9.32;3.80;;;;;;;21.52;55.45;101170.13;5416404;26;20028;-78
2024/04/14 06:30:30;;;;;;;8.23;3.20;;;;;;;21.82;55.07;101171.88;5416536;26;20023;-77
2024/04/14 06:33:35;;;;;;;6.47;2.80;;;;;;;21.80;54.90;101169.31;5416177;26;20028;-77
2024/04/14 06:36:40;;;;;;;6.13;2.58;;;;;;;21.80;55.44;101177.50;5415335;26;20024;-77
2024/04/14 06:39:45;;;;;;;6.43;2.55;;;;;;;21.66;55.84;101178.34;5416354;26;20023;-77
2024/04/14 06:42:49;;;;;;;6.15;2.78;;;;;;;22.01;55.42;101177.66;5416336;26;20023;-77
2024/04/14 06:45:54;;;;;;;8.30;3.42;;;;;;;22.19;55.73;101182.75;5415352;26;20027;-77
2024/04/14 06:48:59;;;;;;;7.22;3.10;;;;;;;22.33;55.95;101181.03;5416355;26;20030;-77
2024/04/14 06:52:04;;;;;;;7.47;3.30;;;;;;;22.27;55.92;101179.88;5416280;26;20024;-77
2024/04/14 06:55:12;;;;;;;7.57;2.70;;;;;;;22.47;54.78;101183.72;5416206;26;20023;-77
2024/04/14 06:58:29;;;;;;;8.95;2.83;;;;;;;22.61;54.03;101184.75;5415884;26;20358;-77
2024/04/14 07:01:34;;;;;;;6.22;2.45;;;;;;;22.79;53.18;101178.91;5416523;26;20023;-77
2024/04/14 07:04:39;;;;;;;10.40;2.70;;;;;;;23.16;52.84;101170.41;5394425;26;20369;-78
2024/04/14 07:07:44;;;;;;;6.18;2.92;;;;;;;23.58;51.56;101181.34;5415822;26;20020;-77
2024/04/14 07:10:49;;;;;;;5.50;2.83;;;;;;;23.86;51.23;101184.94;5414718;26;20046;-77
2024/04/14 07:13:53;;;;;;;7.28;3.85;;;;;;;24.11;51.26;101179.84;5418399;26;20023;-76
2024/04/14 07:16:58;;;;;;;6.47;3.10;;;;;;;24.45;50.98;101179.81;5419148;26;20023;-76
2024/04/14 07:20:04;;;;;;;6.35;3.40;;;;;;;24.92;49.60;101178.94;5419149;26;20366;-76
2024/04/14 07:23:09;;;;;;;4.07;1.98;;;;;;;25.70;48.18;101180.09;5418999;26;20354;-77
2024/04/14 07:26:14;;;;;;;5.30;2.03;;;;;;;27.23;45.08;101183.75;5418167;26;20455;-76
2024/04/14 07:29:19;;;;;;;6.50;2.17;;;;;;;30.23;39.33;101178.06;5419106;26;20023;-79
2024/04/14 07:32:24;;;;;;;6.57;2.00;;;;;;;32.66;34.75;101184.06;5418980;26;20023;-76
2024/04/14 07:35:28;;;;;;;6.72;2.42;;;;;;;35.09;30.81;101184.75;5418441;26;20028;-76
2024/04/14 07:38:33;;;;;;;5.15;2.53;;;;;;;37.46;28.47;101186.91;5418088;26;20027;-77
2024/04/14 07:41:37;;;;;;;6.80;2.58;;;;;;;38.42;27.17;101185.16;5419248;26;20020;-77
2024/04/14 07:44:42;;;;;;;7.10;2.42;;;;;;;39.45;26.83;101185.94;5419027;26;20322;-76
2024/04/14 07:47:47;;;;;;;5.15;2.33;;;;;;;40.53;25.52;101181.72;5419210;26;20023;-79
2024/04/14 07:50:51;;;;;;;7.50;2.90;;;;;;;41.03;24.58;101178.94;5419253;26;20027;-77
2024/04/14 07:53:56;;;;;;;7.32;2.65;;;;;;;41.50;24.25;101173.56;5418129;26;20027;-77
2024/04/14 07:57:02;;;;;;;5.90;3.05;;;;;;;41.67;24.58;101175.63;5418701;26;20019;-77
2024/04/14 08:00:08;;;;;;;5.50;3.22;;;;;;;42.44;23.87;101176.06;5418027;26;20027;-78
2024/04/14 08:03:17;;;;;;;6.03;3.08;;;;;;;43.19;23.41;101184.19;5419199;26;20027;-78
2024/04/14 08:06:22;;;;;;;7.72;2.72;;;;;;;43.51;23.40;101182.03;5419048;26;20023;-78
2024/04/14 08:09:27;;;;;;;6.15;2.60;;;;;;;43.78;23.07;101188.16;5418960;26;20034;-79
2024/04/14 08:12:31;;;;;;;6.53;3.05;;;;;;;44.02;22.86;101193.28;5419232;26;20019;-79
2024/04/14 08:15:36;;;;;;;6.13;2.83;;;;;;;44.31;22.60;101195.34;5418793;26;20027;-76
2024/04/14 08:18:41;;;;;;;7.07;3.42;;;;;;;44.22;22.51;101188.88;5418439;26;20361;-79
2024/04/14 08:21:45;;;;;;;4.95;2.90;;;;;;;44.24;23.11;101183.72;5418484;26;20024;-78
2024/04/14 08:24:50;;;;;;;7.07;3.17;;;;;;;44.81;22.60;101189.75;5418186;26;20020;-78
2024/04/14 08:27:55;;;;;;;4.60;2.47;;;;;;;44.75;22.73;101191.94;5418806;26;20027;-78
2024/04/14 08:31:00;;;;;;;5.05;2.45;;;;;;;44.38;23.01;101195.63;5418673;26;20035;-78
2024/04/14 08:34:05;;;;;;;8.35;2.60;;;;;;;44.33;22.89;101193.81;5396552;26;20039;-79
2024/04/14 08:37:10;;;;;;;6.55;2.95;;;;;;;43.64;23.10;101193.16;5418702;26;20023;-78
2024/04/14 08:40:15;;;;;;;4.75;2.53;;;;;;;42.95;24.34;101194.31;5418555;26;20035;-78
2024/04/14 08:43:21;;;;;;;5.30;3.08;;;;;;;42.31;24.63;101193.13;5418422;26;20031;-78
2024/04/14 08:46:28;;;;;;;5.43;2.63;;;;;;;42.67;25.07;101193.75;5418160;26;20024;-79
2024/04/14 08:49:33;;;;;;;4.95;2.60;;;;;;;43.30;23.60;101190.38;5418219;26;20023;-78
2024/04/14 08:52:42;;;;;;;7.40;2.47;;;;;;;43.22;23.35;101194.00;5417810;26;20366;-78
2024/04/14 08:55:47;;;;;;;5.45;2.60;;;;;;;41.71;25.32;101182.31;5417545;26;20023;-78
2024/04/14 08:58:58;;;;;;;8.63;3.65;;;;;;;39.38;27.37;101184.66;5417768;26;20027;-77
2024/04/14 09:02:06;;;;;;;4.90;2.47;;;;;;;37.72;29.96;101181.94;5417751;26;20023;-78
2024/04/14 09:05:12;;;;;;;5.82;3.10;;;;;;;36.30;31.40;101184.72;5417410;26;20023;-77
2024/04/14 09:08:17;;;;;;;5.53;3.25;;;;;;;35.34;33.08;101169.97;5417175;26;20019;-77
2024/04/14 09:11:22;;;;;;;7.32;3.45;;;;;;;34.63;34.53;101171.75;5416230;26;20023;-77
2024/04/14 09:14:26;;;;;;;5.00;2.83;;;;;;;34.27;35.12;101172.69;5417341;26;20373;-77
2024/04/14 09:17:35;;;;;;;7.75;3.65;;;;;;;34.21;35.43;101166.25;5417442;26;20123;-78
2024/04/14 09:20:39;;;;;;;7.50;3.35;;;;;;;33.78;35.77;101159.00;5416058;26;20028;-77
2024/04/14 09:23:44;;;;;;;8.10;4.53;;;;;;;33.41;35.82;101156.16;5417400;26;20028;-78
2024/04/14 09:26:49;;;;;;;5.45;3.10;;;;;;;32.93;37.42;101152.63;5418054;26;20023;-77
2024/04/14 09:29:56;;;;;;;9.25;3.92;;;;;;;32.22;38.74;101157.28;5417577;26;20019;-77
2024/04/14 09:33:00;;;;;;;5.55;3.63;;;;;;;31.86;38.76;101157.88;5375778;26;20023;-77
2024/04/14 09:36:07;;;;;;;7.53;3.67;;;;;;;31.31;39.91;101160.56;5414279;26;20462;-76
2024/04/14 09:39:13;;;;;;;9.90;4.22;;;;;;;30.98;41.52;101163.28;5416686;26;20381;-76
2024/04/14 09:42:18;;;;;;;7.95;4.18;;;;;;;30.78;41.85;101149.84;5416777;26;20027;-76
2024/04/14 09:45:24;;;;;;;6.45;3.25;;;;;;;30.59;42.79;101148.38;5416761;26;20047;-78
2024/04/14 09:48:31;;;;;;;5.70;3.55;;;;;;;30.59;43.06;101148.38;5415802;26;20024;-78
2024/04/14 09:51:36;;;;;;;8.70;4.43;;;;;;;30.78;42.35;101142.38;5415502;26;20020;-79
2024/04/14 09:54:44;;;;;;;6.32;4.43;;;;;;;30.69;43.10;101143.03;5415531;26;20020;-78
2024/04/14 09:57:49;;;;;;;8.38;4.75;;;;;;;30.43;42.57;101132.50;5416914;26;20027;-77
2024/04/14 10:00:59;;;;;;;6.82;4.93;;;;;;;30.13;43.71;101127.13;5416833;26;20027;-79
2024/04/14 10:04:06;;;;;;;9.07;4.68;;;;;;;30.03;44.78;101126.91;5416454;26;20428;-77
2024/04/14 10:07:14;;;;;;;7.43;4.20;;;;;;;29.98;44.38;101124.88;5416257;26;20024;-77
2024/04/14 10:10:19;;;;;;;7.25;3.90;;;;;;;29.82;45.42;101125.63;5416163;26;20019;-77
2024/04/14 10:13:24;;;;;;;5.35;3.42;;;;;;;30.05;45.14;101117.28;5415237;26;20020;-77
2024/04/14 10:16:29;;;;;;;7.78;4.20;;;;;;;29.90;44.69;101110.59;5416284;26;20035;-77
2024/04/14 10:19:34;;;;;;;9.88;4.50;;;;;;;29.85;43.92;101119.59;5416094;26;20023;-77
2024/04/14 10:22:41;;;;;;;10.30;4.10;;;;;;;29.92;44.25;101116.72;5415185;26;20019;-77
2024/04/14 10:25:47;;;;;;;6.32;4.32;;;;;;;29.85;44.80;101107.69;5415941;26;20020;-77
2024/04/14 10:28:55;;;;;;;8.25;4.45;;;;;;;29.61;45.75;101106.81;5414727;26;20023;-77
2024/04/14 10:31:59;;;;;;;8.88;3.80;;;;;;;29.59;45.53;101096.00;5415932;26;20029;-78
2024/04/14 10:35:17;;;;;;;11.52;3.95;;;;;;;29.47;46.68;101092.41;5415675;26;20374;-77
2024/04/14 10:38:22;;;;;;;9.38;4.60;;;;;;;29.38;47.13;101088.28;5415835;26;20023;-77
2024/04/14 10:41:27;;;;;;;8.15;4.70;;;;;;;29.28;47.50;101081.69;5416362;26;20020;-76
2024/04/14 10:44:32;;;;;;;7.00;4.18;;;;;;;29.15;47.74;101074.44;5415734;26;20023;-77
2024/04/14 10:47:37;;;;;;;9.75;3.95;;;;;;;28.95;48.02;101074.75;5417042;26;20427;-77
2024/04/14 10:50:43;;;;;;;9.32;5.22;;;;;;;28.98;47.74;101071.53;5419463;26;20028;-77
2024/04/14 10:53:52;;;;;;;7.80;4.05;;;;;;;28.74;48.31;101061.47;5418209;26;20020;-77
2024/04/14 10:56:57;;;;;;;7.85;4.15;;;;;;;28.74;48.88;101049.59;5419551;26;20023;-77
2024/04/14 11:00:14;;;;;;;8.50;4.07;;;;;;;28.87;47.60;101058.50;5419285;26;20031;-77
2024/04/14 11:03:20;;;;;;;7.80;4.53;;;;;;;28.55;48.14;101042.41;5419210;26;20028;-77
2024/04/14 11:06:25;;;;;;;7.25;4.38;;;;;;;28.67;48.90;101038.63;5419138;26;20459;-76
2024/04/14 11:09:31;;;;;;;9.80;5.50;;;;;;;28.50;49.67;101042.28;5397346;26;20358;-76
2024/04/14 11:12:36;;;;;;;8.93;4.30;;;;;;;28.39;49.79;101036.47;5418795;26;20102;-76
2024/04/14 11:15:44;;;;;;;9.93;4.65;;;;;;;28.34;49.62;101038.28;5418975;26;20019;-77
2024/04/14 11:18:50;;;;;;;11.55;4.43;;;;;;;28.43;48.73;101025.81;5419153;26;20024;-77
2024/04/14 11:21:58;;;;;;;5.80;3.70;;;;;;;28.39;48.60;101030.13;5418901;26;20024;-77
2024/04/14 11:25:03;;;;;;;6.05;3.60;;;;;;;28.27;46.58;101015.41;5418678;26;20031;-76
2024/04/14 11:28:09;;;;;;;8.52;4.47;;;;;;;28.38;48.51;101014.63;5419498;26;20019;-79
2024/04/14 11:31:14;;;;;;;7.10;4.57;;;;;;;28.22;49.58;101018.06;5417985;26;20023;-77
2024/04/14 11:34:19;;;;;;;10.02;4.60;;;;;;;28.22;49.47;101007.00;5417848;26;20458;-79
2024/04/14 11:37:23;;;;;;;10.35;4.15;;;;;;;28.19;48.97;101010.22;5418812;26;20024;-77
2024/04/14 11:40:28;;;;;;;6.90;3.92;;;;;;;28.11;49.95;100999.50;5417854;26;20346;-78
2024/04/14 11:43:33;;;;;;;6.28;3.70;;;;;;;28.02;51.62;100998.16;5418432;26;20023;-75
2024/04/14 11:46:39;;;;;;;7.78;3.97;;;;;;;28.09;50.61;100997.00;5418597;26;20025;-78
2024/04/14 11:49:44;;;;;;;12.93;5.03;;;;;;;28.11;50.48;100988.47;5419126;26;20027;-77
2024/04/14 11:52:49;;;;;;;8.25;5.13;;;;;;;28.09;50.48;100979.56;5418999;26;20024;-77
2024/04/14 11:55:55;;;;;;;5.72;3.72;;;;;;;28.00;51.62;100980.94;5418728;26;20031;-79
2024/04/14 11:59:00;;;;;;;8.27;3.92;;;;;;;27.93;50.86;100969.97;5416700;26;20023;-77
2024/04/14 12:02:06;;;;;;;10.07;4.25;;;;;;;28.08;51.46;100978.72;5418600;26;20019;-75
2024/04/14 12:05:13;;;;;;;6.47;3.50;;;;;;;28.07;53.43;100967.94;5418404;26;20027;-77
2024/04/14 12:08:18;;;;;;;6.95;4.05;;;;;;;28.15;51.76;100973.94;5418179;26;20038;-77
2024/04/14 12:11:23;;;;;;;8.63;4.18;;;;;;;28.19;51.58;100966.91;5418206;26;20023;-77
2024/04/14 12:14:28;;;;;;;8.02;4.10;;;;;;;28.24;51.04;100964.28;5418198;26;20482;-76
2024/04/14 12:17:33;;;;;;;6.40;4.45;;;;;;;28.31;50.18;100962.25;5418213;26;20047;-78
2024/04/14 12:20:38;;;;;;;7.00;4.40;;;;;;;28.22;51.41;100963.63;5418443;26;20024;-77
2024/04/14 12:23:42;;;;;;;11.88;4.97;;;;;;;28.27;50.63;100961.00;5418232;26;20020;-77
2024/04/14 12:26:47;;;;;;;8.75;4.82;;;;;;;28.14;51.56;100969.53;5417224;26;20023;-77
2024/04/14 12:29:53;;;;;;;7.30;4.25;;;;;;;27.94;50.35;100959.78;5418356;26;20020;-77
2024/04/14 12:32:58;;;;;;;6.55;4.50;;;;;;;28.11;50.16;100945.13;5417936;26;20482;-76
2024/04/14 12:36:03;;;;;;;7.20;4.35;;;;;;;28.26;50.75;100936.41;5416875;26;20057;-77
2024/04/14 12:39:08;;;;;;;7.10;3.88;;;;;;;28.26;49.45;100930.88;5417829;26;20020;-76
2024/04/14 12:42:13;;;;;;;6.70;3.70;;;;;;;28.23;49.93;100926.69;5418059;26;20027;-76
2024/04/14 12:45:18;;;;;;;7.47;4.40;;;;;;;28.47;49.26;100919.28;5417828;26;20507;-77
2024/04/14 12:48:23;;;;;;;7.30;4.10;;;;;;;28.44;49.30;100916.16;5418240;26;20019;-77
2024/04/14 12:51:28;;;;;;;6.35;3.85;;;;;;;28.35;49.12;100912.88;5417747;26;20035;-77
2024/04/14 12:54:33;;;;;;;8.88;4.00;;;;;;;28.24;49.70;100906.28;5417326;26;20020;-76
2024/04/14 12:57:37;;;;;;;10.48;4.32;;;;;;;28.17;48.88;100905.53;5417485;26;20020;-77
2024/04/14 13:00:42;;;;;;;6.00;3.95;;;;;;;28.26;49.50;100897.75;5417759;26;20027;-77
2024/04/14 13:03:47;;;;;;;7.70;3.80;;;;;;;28.20;48.97;100899.53;5418113;26;20027;-79
2024/04/14 13:06:52;;;;;;;5.82;3.78;;;;;;;28.28;49.58;100890.06;5417542;26;20023;-76
2024/04/14 13:09:57;;;;;;;7.93;4.68;;;;;;;28.18;49.28;100876.84;5417130;26;20334;-75
2024/04/14 13:13:02;;;;;;;12.23;5.45;;;;;;;28.44;47.90;100875.56;5416130;26;20498;-75
2024/04/14 13:16:06;;;;;;;9.00;4.20;;;;;;;28.42;49.61;100869.44;5415953;26;20023;-76
2024/04/14 13:19:11;;;;;;;9.30;4.70;;;;;;;28.54;49.25;100867.50;5417544;26;20011;-76
2024/04/14 13:22:16;;;;;;;6.22;3.90;;;;;;;28.31;49.78;100864.75;5417111;26;20031;-77
2024/04/14 13:25:21;;;;;;;10.27;4.60;;;;;;;28.33;49.94;100860.66;5416025;26;20354;-77
2024/04/14 13:28:30;;;;;;;7.20;3.90;;;;;;;28.49;49.80;100858.28;5417240;26;20035;-76
2024/04/14 13:31:35;;;;;;;8.80;4.70;;;;;;;28.23;49.65;100851.28;5416943;26;20024;-76
2024/04/14 13:34:40;;;;;;;6.72;3.72;;;;;;;28.24;49.71;100837.25;5417096;26;20023;-75
2024/04/14 13:37:45;;;;;;;9.88;3.88;;;;;;;28.51;49.18;100834.00;5417735;26;20099;-77
2024/04/14 13:40:49;;;;;;;9.35;3.90;;;;;;;28.60;48.43;100829.81;5417237;26;20466;-77
2024/04/14 13:43:56;;;;;;;8.15;3.35;;;;;;;28.73;46.79;100832.34;5417146;26;20027;-78
2024/04/14 13:47:01;;;;;;;6.53;3.40;;;;;;;28.65;46.40;100829.94;5417209;26;20024;-77
2024/04/14 13:50:07;;;;;;;4.60;2.55;;;;;;;28.52;46.55;100819.94;5418315;26;20023;-77
2024/04/14 13:53:12;;;;;;;4.30;2.63;;;;;;;28.65;45.53;100816.13;5417571;26;20459;-76
2024/04/14 13:56:17;;;;;;;6.18;3.45;;;;;;;28.57;46.09;100809.03;5415912;26;20023;-76
2024/04/14 13:59:21;;;;;;;9.90;3.67;;;;;;;28.57;46.43;100809.03;5416680;26;20023;-77
2024/04/14 14:02:26;;;;;;;7.35;3.03;;;;;;;28.71;43.94;100807.75;5416540;26;20039;-76
2024/04/14 14:05:31;;;;;;;5.75;3.35;;;;;;;28.65;44.32;100797.63;5415350;26;20023;-76
2024/04/14 14:08:35;;;;;;;9.60;3.05;;;;;;;28.75;44.36;100802.56;5416375;26;20052;-77
2024/04/14 14:11:40;;;;;;;7.45;2.42;;;;;;;28.48;44.39;100795.81;5416914;26;20019;-76
2024/04/14 14:14:45;;;;;;;7.97;3.30;;;;;;;28.53;44.88;100790.41;5416716;26;20478;-77
2024/04/14 14:17:51;;;;;;;6.97;3.22;;;;;;;28.62;44.69;100792.59;5416532;26;20023;-76
2024/04/14 14:20:56;;;;;;;7.30;3.40;;;;;;;28.82;44.04;100787.53;5415553;26;20027;-77